Time;durP1;ratioP1;P1;durP2;ratioP2;P2;SDS_P1;SDS_P2;PMS_P1;PMS_P2;Temp;Humidity;BMP_temperature;BMP_pressure;BME280_temperature;BME280_humidity;BME280_pressure;Samples;Min_cycle;Max_cycle;Signal;HPM_P1;HPM_P2
2022/07/29 00:02:21;;;;;;;8.75;7.47;;;;;;;17.50;75.64;94942.97;5090038;28;20079;-78
2022/07/29 00:04:47;;;;;;;9.02;8.00;;;;;;;17.52;75.13;94939.16;5091355;28;20092;-78
2022/07/29 00:07:12;;;;;;;8.82;8.00;;;;;;;17.39;75.85;94937.06;5091397;28;20452;-78
2022/07/29 00:09:38;;;;;;;9.43;7.47;;;;;;;17.85;75.77;94989.88;5091219;28;20374;-78
2022/07/29 00:12:04;;;;;;;8.95;8.13;;;;;;;17.71;74.29;94939.78;5091175;28;20126;-78
2022/07/29 00:14:29;;;;;;;8.25;7.45;;;;;;;17.72;74.61;94937.00;5091182;28;20039;-78
2022/07/29 00:16:55;;;;;;;9.85;8.05;;;;;;;17.61;74.47;94934.75;5091197;28;20549;-78
2022/07/29 00:19:20;;;;;;;9.40;7.90;;;;;;;17.88;74.96;94982.66;5091034;28;20241;-78
2022/07/29 00:21:46;;;;;;;8.85;7.95;;;;;;;17.61;74.84;94950.50;5091185;28;20034;-78
2022/07/29 00:24:11;;;;;;;9.02;7.78;;;;;;;17.52;74.95;94946.22;5090841;28;20036;-78
2022/07/29 00:26:37;;;;;;;8.50;7.70;;;;;;;17.82;75.27;95003.34;5089630;28;20028;-78
2022/07/29 00:29:03;;;;;;;9.35;7.90;;;;;;;17.87;75.31;95008.09;5090867;28;20027;-78
2022/07/29 00:31:29;;;;;;;10.05;8.07;;;;;;;17.64;75.17;94955.41;5090703;28;20024;-78
2022/07/29 00:33:54;;;;;;;8.68;7.40;;;;;;;17.96;73.60;94964.22;5090899;28;20514;-78
2022/07/29 00:36:23;;;;;;;8.57;7.78;;;;;;;17.80;73.49;94939.66;5089606;28;20440;-78
2022/07/29 00:38:49;;;;;;;7.72;6.97;;;;;;;18.11;73.76;94983.59;5090799;28;20024;-78
2022/07/29 00:41:15;;;;;;;13.90;8.23;;;;;;;17.90;74.49;94936.00;5090715;28;20039;-78
2022/07/29 00:43:40;;;;;;;8.20;7.35;;;;;;;17.73;73.86;94906.31;5090763;28;20028;-78
2022/07/29 00:46:06;;;;;;;8.63;7.10;;;;;;;17.82;74.12;94937.66;5090554;28;20402;-78
2022/07/29 00:48:32;;;;;;;8.15;7.35;;;;;;;17.92;74.44;94960.31;5090720;28;20028;-78
2022/07/29 00:50:58;;;;;;;10.93;7.38;;;;;;;18.11;74.32;94993.25;5090248;28;20036;-78
2022/07/29 00:53:23;;;;;;;7.75;6.95;;;;;;;17.76;74.34;94958.50;5070516;28;20028;-78
2022/07/29 00:55:49;;;;;;;10.23;7.05;;;;;;;17.75;73.83;94959.50;5052569;28;20429;-78
2022/07/29 00:58:14;;;;;;;9.60;7.60;;;;;;;17.76;74.41;94954.06;5069398;28;20087;-78
2022/07/29 01:00:40;;;;;;;8.25;7.40;;;;;;;17.46;74.87;94942.47;5070277;28;20064;-78
2022/07/29 01:03:07;;;;;;;8.27;7.35;;;;;;;17.42;74.82;94949.84;5070508;28;20516;-78
2022/07/29 01:05:32;;;;;;;9.38;7.28;;;;;;;17.72;75.10;94963.28;5070696;28;20020;-78
2022/07/29 01:07:58;;;;;;;9.95;6.95;;;;;;;17.68;75.31;94951.44;5069212;28;20037;-78
2022/07/29 01:10:24;;;;;;;8.95;7.60;;;;;;;17.71;75.32;94939.78;5070663;28;20028;-78
2022/07/29 01:12:51;;;;;;;7.90;6.97;;;;;;;17.99;75.00;94974.41;5074163;28;20040;-78
2022/07/29 01:15:16;;;;;;;7.30;6.53;;;;;;;17.67;75.01;94930.63;5073221;28;20108;-78
2022/07/29 01:17:57;;;;;;;9.93;7.00;;;;;;;17.99;74.68;94979.66;5074491;28;20115;-78
2022/07/29 01:20:54;;;;;;;9.18;7.07;;;;;;;17.81;75.28;94980.69;5074223;28;20474;-78
2022/07/29 01:23:31;;;;;;;9.25;7.10;;;;;;;17.72;75.81;94983.44;5074380;28;20032;-78
2022/07/29 01:26:18;;;;;;;9.85;7.90;;;;;;;17.61;76.67;94984.66;5074471;28;20541;-78
2022/07/29 01:28:52;;;;;;;8.60;7.50;;;;;;;17.39;77.06;94986.13;5073963;28;20082;-78
2022/07/29 01:31:42;;;;;;;8.52;7.63;;;;;;;17.16;76.76;94951.81;5073940;28;20036;-78
2022/07/29 01:34:08;;;;;;;8.25;7.03;;;;;;;17.56;76.30;94979.06;5058022;28;20120;-78
2022/07/29 01:36:56;;;;;;;8.77;7.57;;;;;;;17.59;75.89;94983.97;5074007;28;20048;-78
2022/07/29 01:39:31;;;;;;;8.73;7.53;;;;;;;17.36;75.77;94929.50;5073553;28;20039;-78
2022/07/29 01:42:02;;;;;;;9.98;7.47;;;;;;;17.48;75.40;94937.06;5073786;28;20033;-78
2022/07/29 01:44:57;;;;;;;8.10;7.38;;;;;;;17.62;76.20;94979.22;5072432;28;20032;-78
2022/07/29 01:47:25;;;;;;;10.70;7.45;;;;;;;17.43;76.26;94940.16;5073437;28;20613;-78
2022/07/29 01:49:52;;;;;;;8.57;6.85;;;;;;;17.48;75.26;94929.16;5072553;28;20036;-78
2022/07/29 01:52:26;;;;;;;8.02;7.22;;;;;;;17.50;74.94;94929.84;5067847;28;20103;-78
2022/07/29 01:54:58;;;;;;;7.75;7.03;;;;;;;17.38;74.49;94918.84;5093812;28;20490;-78
2022/07/29 01:57:26;;;;;;;8.48;6.85;;;;;;;17.46;75.08;94949.53;5093929;28;20115;-78
2022/07/29 01:59:51;;;;;;;8.07;6.85;;;;;;;17.57;75.25;94963.13;5091782;28;20521;-78
2022/07/29 02:02:17;;;;;;;7.57;6.88;;;;;;;17.40;75.22;94938.69;5092548;28;20044;-78
2022/07/29 02:04:43;;;;;;;8.02;6.78;;;;;;;17.34;75.35;94931.47;5075726;28;20043;-78
2022/07/29 02:07:10;;;;;;;8.23;6.80;;;;;;;17.66;74.90;94963.94;5092728;28;20061;-78
2022/07/29 02:09:36;;;;;;;7.78;7.07;;;;;;;17.71;74.76;94966.06;5092162;28;20077;-78
2022/07/29 02:12:02;;;;;;;8.43;7.63;;;;;;;17.52;74.84;94920.78;5093522;28;20036;-78
2022/07/29 02:14:29;;;;;;;8.57;7.70;;;;;;;17.74;74.50;94961.28;5092060;28;20052;-78
2022/07/29 02:16:55;;;;;;;7.95;7.15;;;;;;;17.54;74.28;94912.75;5093200;28;20040;-78
2022/07/29 02:19:22;;;;;;;6.70;6.10;;;;;;;17.97;73.07;94956.19;5091963;28;20035;-78
2022/07/29 02:21:47;;;;;;;7.05;6.15;;;;;;;17.75;72.78;94905.16;5092877;28;20036;-78
2022/07/29 02:24:13;;;;;;;9.00;6.43;;;;;;;18.01;73.46;94954.84;5091579;28;20034;-78
2022/07/29 02:26:39;;;;;;;7.10;6.40;;;;;;;18.00;73.30;94949.78;5092209;28;20059;-78
2022/07/29 02:29:04;;;;;;;7.15;6.43;;;;;;;18.02;73.63;94950.41;5093091;28;20058;-78
2022/07/29 02:31:33;;;;;;;7.45;6.75;;;;;;;18.09;73.06;94948.75;5093165;28;20079;-78
2022/07/29 02:33:59;;;;;;;7.03;6.32;;;;;;;17.78;73.01;94902.22;5091948;28;20114;-78
2022/07/29 02:36:24;;;;;;;7.25;6.55;;;;;;;17.93;72.97;94922.53;5091670;28;20068;-78
2022/07/29 02:38:50;;;;;;;8.82;6.85;;;;;;;17.84;72.63;94898.09;5091719;28;20043;-78
2022/07/29 02:41:26;;;;;;;7.40;6.70;;;;;;;18.16;72.98;94949.69;5093059;28;20036;-78
2022/07/29 02:43:54;;;;;;;7.78;7.07;;;;;;;17.91;72.94;94912.16;5091735;28;20024;-78
2022/07/29 02:46:26;;;;;;;11.07;7.03;;;;;;;17.80;72.93;94887.09;5091698;28;20504;-78
2022/07/29 02:49:10;;;;;;;8.90;6.80;;;;;;;17.68;73.55;94883.16;5092488;28;20028;-78
2022/07/29 02:51:54;;;;;;;7.57;6.82;;;;;;;18.06;73.76;94941.22;5085815;28;20028;-78
2022/07/29 02:54:35;;;;;;;7.82;6.82;;;;;;;18.02;73.93;94942.53;5070631;28;20406;-78
2022/07/29 02:57:04;;;;;;;8.50;6.75;;;;;;;17.84;73.88;94909.41;5072378;28;20089;-78
2022/07/29 02:59:30;;;;;;;7.35;6.63;;;;;;;17.67;73.96;94881.53;5070685;28;20078;-78
2022/07/29 03:01:56;;;;;;;7.28;6.47;;;;;;;17.86;74.04;94915.31;5072255;28;20025;-78
2022/07/29 03:04:22;;;;;;;8.45;6.97;;;;;;;18.04;73.87;94932.66;5070950;28;20097;-78
2022/07/29 03:06:48;;;;;;;7.40;6.70;;;;;;;17.78;73.64;94875.94;5071233;28;20460;-78
2022/07/29 03:09:13;;;;;;;8.82;5.97;;;;;;;18.22;74.16;94941.16;5070711;28;20016;-78
2022/07/29 03:11:40;;;;;;;6.47;5.88;;;;;;;17.88;74.88;94888.03;5072266;28;20033;-78
2022/07/29 03:14:06;;;;;;;7.20;6.55;;;;;;;18.09;74.92;94928.53;5071969;28;20048;-78
2022/07/29 03:16:31;;;;;;;11.35;6.43;;;;;;;17.82;74.83;94898.25;5072017;28;20121;-77
2022/07/29 03:18:57;;;;;;;6.05;5.30;;;;;;;18.02;74.28;94938.09;5070779;28;20043;-77
2022/07/29 03:21:23;;;;;;;6.72;6.13;;;;;;;18.05;74.00;94929.88;5070511;28;20035;-77
2022/07/29 03:23:48;;;;;;;8.40;5.55;;;;;;;17.83;73.70;94881.50;5071717;28;20410;-77
2022/07/29 03:26:14;;;;;;;7.70;5.65;;;;;;;17.83;74.18;94886.75;5071785;28;20437;-78
2022/07/29 03:28:39;;;;;;;6.57;5.70;;;;;;;17.82;74.57;94906.13;5071613;28;20023;-78
2022/07/29 03:31:05;;;;;;;8.45;6.03;;;;;;;17.70;74.64;94906.63;5071733;28;20033;-77
2022/07/29 03:33:31;;;;;;;6.22;5.53;;;;;;;17.80;75.07;94937.03;5071138;28;20024;-78
2022/07/29 03:35:56;;;;;;;7.60;5.57;;;;;;;17.47;74.74;94899.47;5070734;28;20032;-77
2022/07/29 03:38:24;;;;;;;5.75;5.07;;;;;;;17.85;74.29;94942.56;5071653;28;20028;-77
2022/07/29 03:40:53;;;;;;;6.90;5.50;;;;;;;17.92;73.75;94941.91;5070471;28;20067;-77
2022/07/29 03:43:18;;;;;;;5.88;5.30;;;;;;;17.51;74.09;94892.06;5053785;28;20490;-77
2022/07/29 03:45:45;;;;;;;6.57;5.72;;;;;;;17.48;74.17;94897.66;5071081;28;20025;-78
2022/07/29 03:48:12;;;;;;;6.20;5.55;;;;;;;17.61;73.94;94925.03;5070226;28;20470;-78
2022/07/29 03:50:38;;;;;;;7.75;5.63;;;;;;;17.74;74.21;94950.78;5053767;28;20118;-77
2022/07/29 03:53:03;;;;;;;7.07;5.35;;;;;;;17.40;74.57;94890.59;5090073;28;20032;-77
2022/07/29 03:55:31;;;;;;;7.63;6.30;;;;;;;17.45;74.16;94917.19;5090264;28;20118;-77
2022/07/29 03:57:56;;;;;;;5.97;5.43;;;;;;;17.61;74.42;94956.56;5090343;28;20062;-77
2022/07/29 04:00:23;;;;;;;6.75;6.05;;;;;;;17.67;74.55;94949.81;5090055;28;20044;-77
2022/07/29 04:02:49;;;;;;;6.82;5.50;;;;;;;17.51;73.32;94905.19;5091894;28;20103;-78
2022/07/29 04:05:14;;;;;;;6.10;5.50;;;;;;;17.82;73.56;94953.41;5091775;28;20532;-78
2022/07/29 04:07:43;;;;;;;7.90;5.78;;;;;;;17.59;73.48;94915.69;5090428;28;20028;-77
2022/07/29 04:10:09;;;;;;;6.82;5.70;;;;;;;17.66;73.65;94924.53;5091699;28;20029;-77
2022/07/29 04:12:34;;;;;;;8.05;5.38;;;;;;;17.90;73.77;94954.41;5091437;28;20032;-77
2022/07/29 04:15:01;;;;;;;6.50;5.90;;;;;;;17.80;73.63;94950.16;5089899;28;20059;-77
2022/07/29 04:17:26;;;;;;;10.50;5.50;;;;;;;17.65;73.98;94907.13;5091230;28;20119;-78
2022/07/29 04:19:52;;;;;;;8.25;5.40;;;;;;;17.71;73.21;94903.81;5091323;28;20036;-78
2022/07/29 04:22:18;;;;;;;6.57;5.40;;;;;;;18.04;71.83;94915.09;5091495;28;20030;-77
2022/07/29 04:24:43;;;;;;;7.70;5.88;;;;;;;18.33;71.04;94899.66;5089907;28;20032;-77
2022/07/29 04:27:09;;;;;;;6.18;5.25;;;;;;;19.22;69.59;94956.19;5090032;28;20032;-78
2022/07/29 04:29:34;;;;;;;8.43;5.13;;;;;;;19.61;68.69;94950.75;5080766;28;20042;-77
2022/07/29 04:32:00;;;;;;;5.72;4.78;;;;;;;19.62;67.45;94901.53;5076667;28;20040;-78
2022/07/29 04:34:25;;;;;;;4.88;4.25;;;;;;;20.01;65.31;94901.28;5081999;28;20024;-78
2022/07/29 04:36:51;;;;;;;5.80;4.60;;;;;;;20.47;64.39;94948.50;5081237;28;20429;-78
2022/07/29 04:39:17;;;;;;;5.07;4.60;;;;;;;20.46;64.52;94944.22;5091046;28;20028;-78
2022/07/29 04:41:43;;;;;;;5.45;4.53;;;;;;;20.74;62.68;94906.63;5090890;28;20520;-78
2022/07/29 04:44:09;;;;;;;6.25;4.55;;;;;;;21.34;61.40;94908.00;5076669;28;20286;-78
2022/07/29 04:46:34;;;;;;;4.90;4.50;;;;;;;21.98;59.21;94936.13;5070631;28;20033;-78
2022/07/29 04:49:00;;;;;;;4.57;4.13;;;;;;;22.68;57.27;94960.69;5080701;28;20460;-78
2022/07/29 04:51:25;;;;;;;5.13;4.35;;;;;;;22.67;56.16;94919.34;5079019;28;20546;-78
2022/07/29 04:53:51;;;;;;;5.25;4.20;;;;;;;22.56;56.50;94919.09;5087627;28;20509;-78
2022/07/29 04:56:16;;;;;;;5.00;4.38;;;;;;;22.88;57.02;94928.16;5090691;28;20490;-78
2022/07/29 04:58:42;;;;;;;5.32;4.05;;;;;;;23.76;54.10;94959.88;5090752;28;20020;-78
2022/07/29 05:01:07;;;;;;;6.30;4.07;;;;;;;23.66;53.56;94925.00;5090259;28;20108;-78
2022/07/29 05:03:33;;;;;;;6.38;4.22;;;;;;;23.20;54.14;94927.41;5090736;28;20420;-78
2022/07/29 05:05:58;;;;;;;6.00;4.00;;;;;;;23.17;55.21;94932.31;5090914;28;20078;-78
2022/07/29 05:08:24;;;;;;;6.70;4.47;;;;;;;22.70;55.83;94926.88;5059748;28;20035;-78
2022/07/29 05:10:50;;;;;;;4.93;4.15;;;;;;;22.66;55.38;94935.44;5070924;28;20028;-78
2022/07/29 05:13:15;;;;;;;5.03;4.30;;;;;;;22.36;56.75;94924.31;5070474;28;20029;-78
2022/07/29 05:15:41;;;;;;;5.57;4.35;;;;;;;22.37;57.47;94955.06;5082898;28;20039;-78
2022/07/29 05:18:06;;;;;;;5.70;5.20;;;;;;;22.41;59.27;94935.94;5071281;28;20037;-78
2022/07/29 05:20:33;;;;;;;8.40;5.40;;;;;;;22.61;60.90;94927.28;5070777;28;20032;-78
2022/07/29 05:22:59;;;;;;;6.57;5.05;;;;;;;22.85;60.17;94941.81;5069075;28;20500;-78
2022/07/29 05:25:25;;;;;;;8.52;4.80;;;;;;;22.87;60.68;94921.22;5070712;28;20078;-78
2022/07/29 05:27:51;;;;;;;7.28;5.35;;;;;;;23.17;60.47;94977.34;5070136;28;20055;-78
2022/07/29 05:30:16;;;;;;;6.93;4.53;;;;;;;23.30;61.00;94985.34;5070504;28;20158;-78
2022/07/29 05:32:42;;;;;;;8.98;6.40;;;;;;;22.95;61.12;94942.22;5070346;28;20051;-78
2022/07/29 05:35:07;;;;;;;9.85;6.57;;;;;;;22.87;57.06;94953.84;5071241;28;20029;-78
2022/07/29 05:37:33;;;;;;;7.80;6.70;;;;;;;22.68;56.86;94942.16;5071399;28;20029;-78
2022/07/29 05:39:58;;;;;;;8.52;6.30;;;;;;;22.94;57.21;94975.03;5070288;28;20414;-78
2022/07/29 05:42:24;;;;;;;8.80;6.50;;;;;;;22.75;57.87;94935.03;5069096;28;20555;-78
2022/07/29 05:44:50;;;;;;;6.78;5.93;;;;;;;23.06;60.92;94943.50;5087362;28;20463;-78
2022/07/29 05:47:16;;;;;;;9.10;6.43;;;;;;;23.28;58.66;94949.44;5090334;28;20081;-78
2022/07/29 05:49:41;;;;;;;7.18;5.88;;;;;;;23.46;58.10;94981.50;5090571;28;20158;-78
2022/07/29 05:52:07;;;;;;;7.25;6.50;;;;;;;23.29;56.22;94951.06;5083696;28;20028;-78
2022/07/29 05:54:32;;;;;;;6.68;5.78;;;;;;;23.00;55.77;94936.38;5077088;28;20401;-78
2022/07/29 05:56:58;;;;;;;7.13;6.43;;;;;;;23.48;56.28;94987.38;5070692;28;20115;-78
2022/07/29 05:59:23;;;;;;;7.93;5.97;;;;;;;23.43;55.25;94971.28;5080978;28;20028;-76
2022/07/29 06:01:49;;;;;;;7.63;5.97;;;;;;;23.47;55.84;94991.06;5081940;28;20108;-76
2022/07/29 06:04:14;;;;;;;6.70;5.57;;;;;;;23.38;55.32;94987.78;5081326;28;20103;-76
2022/07/29 06:06:40;;;;;;;7.90;6.57;;;;;;;23.33;55.88;94986.75;5084605;28;20028;-76
2022/07/29 06:09:05;;;;;;;9.07;7.28;;;;;;;23.31;56.01;94983.50;5080360;28;20050;-77
2022/07/29 06:11:31;;;;;;;9.57;6.55;;;;;;;23.17;58.30;94932.31;5085927;28;20040;-81
2022/07/29 06:13:56;;;;;;;9.38;6.75;;;;;;;23.57;58.38;94967.63;5091115;28;20032;-79
2022/07/29 06:16:22;;;;;;;11.35;6.40;;;;;;;23.70;56.63;94992.50;5093460;28;20035;-78
2022/07/29 06:18:48;;;;;;;7.00;6.30;;;;;;;23.77;58.29;94970.31;5079744;28;20021;-77
2022/07/29 06:21:13;;;;;;;7.10;6.38;;;;;;;23.66;57.25;94947.03;5078273;28;20143;-76
2022/07/29 06:23:39;;;;;;;15.98;7.88;;;;;;;23.84;55.60;94964.97;5038764;28;20032;-77
2022/07/29 06:26:04;;;;;;;11.65;7.97;;;;;;;23.98;54.36;94987.81;5078966;28;20040;-77
2022/07/29 06:28:30;;;;;;;8.60;6.30;;;;;;;23.94;54.50;94983.94;5093314;28;20051;-79
2022/07/29 06:30:56;;;;;;;10.18;6.68;;;;;;;23.74;54.27;94943.38;5083145;28;20028;-77
2022/07/29 06:33:21;;;;;;;6.95;6.25;;;;;;;24.12;55.55;94993.91;5081808;28;20020;-77
2022/07/29 06:35:47;;;;;;;8.35;6.47;;;;;;;24.36;55.56;94989.00;5078339;28;20060;-76
2022/07/29 06:38:13;;;;;;;6.53;4.90;;;;;;;24.52;52.46;94983.25;5085440;28;20036;-82
2022/07/29 06:43:33;;;;;;;9.63;5.30;;;;;;;24.72;52.15;94977.88;5079521;28;20043;-79
2022/07/29 06:46:02;;;;;;;8.48;5.22;;;;;;;24.88;51.86;94976.59;5083660;28;20610;-76
2022/07/29 06:48:28;;;;;;;5.67;5.07;;;;;;;24.93;51.79;94974.91;5080897;28;20038;-78
2022/07/29 06:50:54;;;;;;;6.05;5.43;;;;;;;24.67;51.41;94943.97;5081167;28;20281;-79
2022/07/29 06:53:20;;;;;;;13.13;6.35;;;;;;;24.73;51.87;94921.06;5082401;28;20024;-79
2022/07/29 06:55:45;;;;;;;9.63;7.80;;;;;;;25.09;51.52;94975.44;5079917;28;20394;-77
2022/07/29 06:58:11;;;;;;;12.52;8.13;;;;;;;25.27;50.80;94970.25;5076467;28;20035;-77
2022/07/29 07:00:37;;;;;;;7.35;6.10;;;;;;;25.21;51.84;94967.63;5076435;28;20075;-77
2022/07/29 07:03:02;;;;;;;5.55;5.05;;;;;;;25.34;50.03;94967.53;5075436;28;20474;-76
2022/07/29 07:05:28;;;;;;;6.72;4.80;;;;;;;25.24;49.52;94964.53;5079130;28;20035;-81
2022/07/29 07:07:53;;;;;;;5.75;4.78;;;;;;;25.25;50.61;94967.00;5080597;28;20108;-77
2022/07/29 07:10:19;;;;;;;5.43;4.93;;;;;;;25.34;50.93;94963.03;5078128;28;20036;-76
2022/07/29 07:12:45;;;;;;;7.20;4.88;;;;;;;25.33;51.72;94958.75;5079138;28;20028;-76
2022/07/29 07:15:10;;;;;;;7.40;5.03;;;;;;;25.26;51.79;94955.31;5072550;28;20157;-75
2022/07/29 07:17:37;;;;;;;5.63;4.50;;;;;;;25.13;51.24;94944.72;5079204;28;20081;-74
2022/07/29 07:20:04;;;;;;;6.40;4.72;;;;;;;25.06;51.74;94962.56;5090358;28;20039;-75
2022/07/29 07:22:30;;;;;;;4.53;4.13;;;;;;;25.09;49.97;94964.81;5092415;28;20064;-75
2022/07/29 07:24:55;;;;;;;4.25;3.85;;;;;;;24.99;49.70;94954.66;5081246;28;20502;-79
2022/07/29 07:27:21;;;;;;;6.72;3.88;;;;;;;25.06;50.14;94958.06;5054388;28;20078;-75
2022/07/29 07:29:46;;;;;;;5.30;4.18;;;;;;;25.16;49.88;94957.66;5085984;28;20481;-77
2022/07/29 07:32:13;;;;;;;5.50;3.95;;;;;;;25.30;50.23;94963.69;5083748;28;20414;-74
2022/07/29 07:34:38;;;;;;;4.10;3.70;;;;;;;25.40;50.36;94953.38;5072161;28;20032;-75
2022/07/29 07:37:04;;;;;;;4.55;3.63;;;;;;;25.54;49.20;94959.41;5063742;28;20516;-75
2022/07/29 07:39:29;;;;;;;4.97;4.20;;;;;;;25.72;49.08;94946.19;5077934;28;20054;-75
2022/07/29 07:41:55;;;;;;;8.32;5.43;;;;;;;25.80;48.93;94948.56;5091968;28;20031;-75
2022/07/29 07:44:20;;;;;;;4.13;3.60;;;;;;;25.82;46.33;94957.13;5077962;28;20032;-75
2022/07/29 07:46:46;;;;;;;6.28;4.03;;;;;;;25.79;47.52;94941.59;5077961;28;20024;-75
2022/07/29 07:49:11;;;;;;;5.57;4.35;;;;;;;25.97;47.13;94951.53;5075390;28;20044;-75
2022/07/29 07:51:36;;;;;;;6.68;4.68;;;;;;;26.12;47.55;94953.81;5072021;28;20082;-75
2022/07/29 07:54:02;;;;;;;4.70;4.03;;;;;;;26.19;46.68;94943.13;5071448;28;20090;-75
2022/07/29 07:56:27;;;;;;;6.40;4.00;;;;;;;26.34;46.92;94937.44;5076416;28;20060;-75
2022/07/29 07:58:53;;;;;;;3.90;3.60;;;;;;;26.48;45.57;94933.56;5042368;28;20103;-75
2022/07/29 08:01:20;;;;;;;4.20;3.78;;;;;;;26.71;44.84;94944.38;5070565;28;20490;-75
2022/07/29 08:03:46;;;;;;;4.95;3.42;;;;;;;26.66;43.83;94940.75;5069561;28;20053;-74
2022/07/29 08:06:11;;;;;;;9.18;3.63;;;;;;;26.54;45.13;94946.03;5034929;28;20513;-75
2022/07/29 08:08:37;;;;;;;4.00;3.63;;;;;;;26.41;44.95;94936.31;5051519;28;20032;-75
2022/07/29 08:11:03;;;;;;;4.95;3.67;;;;;;;26.55;44.43;94945.00;5051547;28;20455;-75
2022/07/29 08:13:29;;;;;;;4.30;3.55;;;;;;;26.77;43.74;94941.84;5069440;28;20025;-75
2022/07/29 08:15:59;;;;;;;4.72;3.40;;;;;;;26.83;44.30;94946.28;5034933;28;20070;-74
2022/07/29 08:18:29;;;;;;;5.53;3.47;;;;;;;26.98;43.00;94933.38;5051873;28;20078;-75
2022/07/29 08:20:54;;;;;;;7.30;3.33;;;;;;;27.16;42.40;94940.53;5067240;28;20042;-75
2022/07/29 08:23:20;;;;;;;5.90;3.80;;;;;;;27.17;43.31;94937.66;5051202;28;20025;-75
2022/07/29 08:25:45;;;;;;;4.38;3.20;;;;;;;27.39;40.34;94929.13;5067721;28;20484;-75
2022/07/29 08:28:11;;;;;;;4.32;3.33;;;;;;;27.34;41.67;94929.00;5050968;28;20028;-75
2022/07/29 08:30:36;;;;;;;5.25;3.45;;;;;;;27.46;39.00;94935.16;5067693;28;20055;-74
2022/07/29 08:33:02;;;;;;;3.65;3.35;;;;;;;27.52;40.74;94934.22;5050954;28;20024;-75
2022/07/29 08:35:27;;;;;;;4.50;3.70;;;;;;;27.68;39.45;94932.75;5068954;28;20033;-75
2022/07/29 08:37:53;;;;;;;3.53;3.13;;;;;;;27.79;38.91;94933.81;5069734;28;20170;-74
2022/07/29 08:40:20;;;;;;;4.82;3.50;;;;;;;27.79;40.26;94920.47;5052771;28;20036;-75
2022/07/29 08:42:45;;;;;;;3.60;3.30;;;;;;;27.94;40.68;94936.03;5053161;28;20032;-75
2022/07/29 08:45:11;;;;;;;4.00;3.60;;;;;;;27.95;40.03;94927.81;5069638;28;20628;-75
2022/07/29 08:47:39;;;;;;;4.75;3.28;;;;;;;27.83;39.34;94918.97;5063301;28;20173;-75
2022/07/29 08:50:06;;;;;;;4.47;3.80;;;;;;;27.80;38.74;94924.78;5067276;28;20414;-75
2022/07/29 08:52:32;;;;;;;4.70;3.65;;;;;;;27.85;39.96;94935.59;5069942;28;20016;-75
2022/07/29 08:54:58;;;;;;;6.13;4.03;;;;;;;27.89;38.73;94923.41;5081198;28;20413;-74
2022/07/29 08:57:23;;;;;;;4.45;3.85;;;;;;;27.93;39.58;94927.22;5062069;28;20039;-73
2022/07/29 08:59:48;;;;;;;6.45;4.13;;;;;;;27.91;41.27;94923.97;5058389;28;20102;-72
2022/07/29 09:02:20;;;;;;;5.35;3.80;;;;;;;28.16;38.40;94929.06;5072555;28;20086;-73
2022/07/29 09:04:46;;;;;;;5.13;3.83;;;;;;;28.09;40.10;94920.38;5066367;28;20105;-73
2022/07/29 09:07:14;;;;;;;4.78;3.97;;;;;;;27.95;40.02;94895.78;5069405;28;20494;-73
2022/07/29 09:09:40;;;;;;;4.90;4.40;;;;;;;28.30;40.24;94918.94;5054772;28;20044;-72
2022/07/29 09:12:07;;;;;;;5.65;4.15;;;;;;;28.30;38.18;94913.59;5068107;28;20387;-73
2022/07/29 09:14:33;;;;;;;5.93;3.83;;;;;;;28.31;39.70;94915.25;5069140;28;20020;-73
2022/07/29 09:16:58;;;;;;;5.72;4.30;;;;;;;28.47;38.40;94914.56;5051294;28;20040;-73
2022/07/29 09:19:29;;;;;;;4.70;4.13;;;;;;;28.54;39.27;94916.28;5067769;28;20024;-73
2022/07/29 09:21:58;;;;;;;7.50;4.20;;;;;;;28.53;39.97;94907.44;5067551;28;20044;-73
2022/07/29 09:24:38;;;;;;;4.90;4.40;;;;;;;28.72;39.65;94908.91;5067087;28;20032;-72
2022/07/29 09:27:19;;;;;;;5.00;4.00;;;;;;;28.99;38.68;94912.84;5067089;28;20387;-73
2022/07/29 09:29:45;;;;;;;4.93;4.07;;;;;;;29.11;38.76;94914.47;5052368;28;20491;-73
2022/07/29 09:32:10;;;;;;;4.93;4.00;;;;;;;29.24;38.49;94913.34;5067996;28;20025;-73
2022/07/29 09:34:36;;;;;;;4.55;3.88;;;;;;;29.35;37.98;94915.13;5071257;28;20141;-73
2022/07/29 09:37:02;;;;;;;6.53;4.18;;;;;;;29.32;35.16;94915.63;5071357;28;20024;-73
2022/07/29 09:39:31;;;;;;;5.10;4.60;;;;;;;29.28;38.06;94909.13;5055449;28;20554;-73
2022/07/29 09:41:58;;;;;;;4.63;4.10;;;;;;;29.24;36.67;94907.97;5072891;28;20043;-73
2022/07/29 09:44:24;;;;;;;5.03;3.80;;;;;;;29.25;37.47;94909.59;5073040;28;20032;-73
2022/07/29 09:47:05;;;;;;;4.40;4.00;;;;;;;29.31;38.23;94902.47;5072804;28;20059;-73
2022/07/29 09:49:31;;;;;;;4.18;3.83;;;;;;;29.56;37.49;94897.56;5072709;28;20032;-73
2022/07/29 09:52:14;;;;;;;4.95;4.25;;;;;;;29.42;37.49;94895.44;5073861;28;20028;-73
2022/07/29 09:54:40;;;;;;;6.45;4.22;;;;;;;29.40;37.91;94887.66;5072705;28;20033;-73
2022/07/29 09:57:12;;;;;;;4.97;4.07;;;;;;;29.55;37.58;94897.78;5072641;28;20121;-73
2022/07/29 09:59:38;;;;;;;5.22;4.68;;;;;;;29.48;35.65;94891.81;5072232;28;20048;-73
2022/07/29 10:02:11;;;;;;;5.45;4.05;;;;;;;29.52;35.48;94887.56;5055760;28;20035;-73
2022/07/29 10:04:41;;;;;;;6.13;4.18;;;;;;;29.48;36.48;94875.75;5072523;28;20037;-72
2022/07/29 10:07:06;;;;;;;6.88;4.20;;;;;;;29.42;36.94;94871.34;5055718;28;20089;-73
2022/07/29 10:09:32;;;;;;;4.22;3.75;;;;;;;29.51;36.38;94869.91;5055618;28;20090;-72
2022/07/29 10:12:05;;;;;;;6.20;4.20;;;;;;;29.47;34.64;94874.13;5072361;28;20033;-73
2022/07/29 10:14:32;;;;;;;4.38;3.88;;;;;;;29.42;38.20;94866.00;5072271;28;20033;-73
2022/07/29 10:16:58;;;;;;;4.38;3.60;;;;;;;29.53;35.68;94873.13;5072193;28;20036;-73
2022/07/29 10:19:24;;;;;;;4.50;3.65;;;;;;;29.61;35.53;94862.03;5055308;28;20422;-73
2022/07/29 10:21:49;;;;;;;5.22;3.60;;;;;;;29.76;35.25;94867.66;5055336;28;20039;-73
2022/07/29 10:24:15;;;;;;;4.32;3.92;;;;;;;29.59;36.90;94856.94;5055241;28;20024;-73
2022/07/29 10:26:40;;;;;;;7.78;3.80;;;;;;;29.79;36.13;94861.00;5072186;28;20029;-73
2022/07/29 10:29:06;;;;;;;3.95;3.55;;;;;;;29.98;33.31;94854.31;5071935;28;20064;-73
2022/07/29 10:32:10;;;;;;;4.15;3.55;;;;;;;29.91;35.72;94848.31;5072032;28;20490;-73
2022/07/29 10:34:54;;;;;;;4.43;3.30;;;;;;;29.96;35.78;94855.59;5069951;28;20040;-73
2022/07/29 10:37:45;;;;;;;4.90;3.58;;;;;;;29.76;34.24;94856.13;5073090;28;20110;-73
2022/07/29 10:43:35;;;;;;;4.93;3.50;;;;;;;29.82;34.50;94839.88;5071965;28;20066;-73
2022/07/29 10:46:01;;;;;;;3.92;3.53;;;;;;;29.96;36.28;94836.88;5071879;28;20037;-73
2022/07/29 10:48:27;;;;;;;3.85;3.30;;;;;;;30.14;32.96;94841.09;5054902;28;20039;-74
2022/07/29 10:50:56;;;;;;;5.45;3.47;;;;;;;30.18;34.58;94840.38;5054755;28;20037;-73
2022/07/29 10:53:23;;;;;;;4.20;3.80;;;;;;;30.24;33.14;94833.22;5054806;28;20024;-73
2022/07/29 10:55:50;;;;;;;5.53;3.55;;;;;;;30.27;33.21;94836.22;5071658;28;20028;-73
2022/07/29 10:58:23;;;;;;;4.32;3.78;;;;;;;30.17;34.98;94838.75;5071482;28;20039;-73
2022/07/29 11:00:50;;;;;;;4.82;3.70;;;;;;;30.13;34.56;94821.56;5054444;28;20092;-73
2022/07/29 11:03:40;;;;;;;4.00;3.47;;;;;;;30.22;34.32;94833.47;5072578;28;20028;-73
2022/07/29 11:06:05;;;;;;;;;;;;;;;30.07;34.08;94822.53;5071620;28;20045;-73
2022/07/29 11:08:31;;;;;;;4.53;3.60;;;;;;;30.00;33.05;94819.22;5071381;28;19942;-73
2022/07/29 11:11:18;;;;;;;5.38;3.63;;;;;;;30.13;32.71;94829.59;5071326;28;20529;-73
2022/07/29 11:13:46;;;;;;;5.45;4.00;;;;;;;30.17;32.57;94824.53;5072292;28;20025;-73
2022/07/29 11:16:11;;;;;;;4.82;3.70;;;;;;;30.28;32.39;94826.31;5072503;28;20060;-73
2022/07/29 11:19:05;;;;;;;4.13;3.72;;;;;;;30.15;32.54;94799.88;5071149;28;20078;-73
2022/07/29 11:21:38;;;;;;;6.05;3.97;;;;;;;30.17;33.91;94795.06;5071151;28;20085;-73
2022/07/29 11:24:20;;;;;;;4.20;3.80;;;;;;;30.15;32.95;94795.34;5072069;28;20394;-73
2022/07/29 11:27:07;;;;;;;4.50;3.75;;;;;;;30.43;33.71;94806.94;5070975;28;20272;-73
2022/07/29 11:29:32;;;;;;;8.88;3.70;;;;;;;30.40;31.06;94802.88;5054147;28;20029;-73
2022/07/29 11:32:11;;;;;;;4.30;3.80;;;;;;;30.40;32.29;94794.03;5070763;28;20064;-73
2022/07/29 11:34:40;;;;;;;4.00;3.60;;;;;;;30.40;33.57;94794.84;5070820;28;20032;-73
2022/07/29 11:37:12;;;;;;;4.15;3.75;;;;;;;30.63;32.69;94807.13;5054385;28;20036;-73
2022/07/29 11:39:44;;;;;;;4.53;3.55;;;;;;;30.60;30.45;94807.66;5071913;28;20025;-73
2022/07/29 11:42:25;;;;;;;3.90;3.50;;;;;;;30.61;30.14;94800.41;5053887;28;20090;-73
2022/07/29 11:45:00;;;;;;;4.63;3.38;;;;;;;30.55;30.67;94799.56;5070462;28;20039;-73